sensor_id;sensor_type;location;lat;lon;timestamp;P1;durP1;ratioP1;P2;durP2;ratioP2
27383;SDS011;14851;51.166;4.760;2022-10-30T00:00:50;17.13;;;8.27;;
27383;SDS011;14851;51.166;4.760;2022-10-30T00:03:16;16.13;;;8.95;;
27383;SDS011;14851;51.166;4.760;2022-10-30T00:05:44;16.73;;;7.63;;
27383;SDS011;14851;51.166;4.760;2022-10-30T00:08:13;16.83;;;8.30;;
27383;SDS011;14851;51.166;4.760;2022-10-30T00:10:43;14.93;;;8.52;;
27383;SDS011;14851;51.166;4.760;2022-10-30T00:13:11;23.13;;;8.90;;
27383;SDS011;14851;51.166;4.760;2022-10-30T00:15:50;16.65;;;8.52;;
27383;SDS011;14851;51.166;4.760;2022-10-30T00:18:18;14.27;;;8.40;;
27383;SDS011;14851;51.166;4.760;2022-10-30T00:20:45;16.05;;;7.43;;
27383;SDS011;14851;51.166;4.760;2022-10-30T00:23:14;16.08;;;7.63;;
27383;SDS011;14851;51.166;4.760;2022-10-30T00:25:40;13.30;;;7.45;;
27383;SDS011;14851;51.166;4.760;2022-10-30T00:28:06;21.02;;;7.78;;
27383;SDS011;14851;51.166;4.760;2022-10-30T00:30:33;16.75;;;8.57;;
27383;SDS011;14851;51.166;4.760;2022-10-30T00:33:00;14.15;;;8.07;;
27383;SDS011;14851;51.166;4.760;2022-10-30T00:35:27;17.10;;;8.43;;
27383;SDS011;14851;51.166;4.760;2022-10-30T00:37:54;18.10;;;8.18;;
27383;SDS011;14851;51.166;4.760;2022-10-30T00:40:23;15.50;;;8.30;;
27383;SDS011;14851;51.166;4.760;2022-10-30T00:42:49;17.60;;;8.45;;
27383;SDS011;14851;51.166;4.760;2022-10-30T00:45:16;16.45;;;8.05;;
27383;SDS011;14851;51.166;4.760;2022-10-30T00:47:43;26.70;;;8.73;;
27383;SDS011;14851;51.166;4.760;2022-10-30T00:50:14;16.40;;;8.40;;
27383;SDS011;14851;51.166;4.760;2022-10-30T00:52:49;15.88;;;8.55;;
27383;SDS011;14851;51.166;4.760;2022-10-30T00:55:19;15.52;;;8.45;;
27383;SDS011;14851;51.166;4.760;2022-10-30T00:57:55;19.15;;;8.90;;
27383;SDS011;14851;51.166;4.760;2022-10-30T01:00:25;20.33;;;9.13;;
27383;SDS011;14851;51.166;4.760;2022-10-30T01:02:52;15.50;;;8.50;;
27383;SDS011;14851;51.166;4.760;2022-10-30T01:05:20;18.13;;;8.63;;
27383;SDS011;14851;51.166;4.760;2022-10-30T01:07:49;15.75;;;8.48;;
27383;SDS011;14851;51.166;4.760;2022-10-30T01:10:17;19.65;;;8.50;;
27383;SDS011;14851;51.166;4.760;2022-10-30T01:12:44;17.95;;;8.10;;
27383;SDS011;14851;51.166;4.760;2022-10-30T01:15:13;13.60;;;8.00;;
27383;SDS011;14851;51.166;4.760;2022-10-30T01:20:14;17.90;;;8.35;;
27383;SDS011;14851;51.166;4.760;2022-10-30T01:34:20;12.57;;;8.57;;
27383;SDS011;14851;51.166;4.760;2022-10-30T01:37:31;15.40;;;8.85;;
27383;SDS011;14851;51.166;4.760;2022-10-30T01:40:05;15.70;;;8.90;;
27383;SDS011;14851;51.166;4.760;2022-10-30T01:42:44;15.52;;;8.38;;
27383;SDS011;14851;51.166;4.760;2022-10-30T01:59:50;17.58;;;9.00;;
27383;SDS011;14851;51.166;4.760;2022-10-30T02:02:24;18.25;;;8.80;;
27383;SDS011;14851;51.166;4.760;2022-10-30T02:04:52;13.00;;;8.43;;
27383;SDS011;14851;51.166;4.760;2022-10-30T02:07:19;15.65;;;10.10;;
27383;SDS011;14851;51.166;4.760;2022-10-30T02:09:55;13.23;;;9.02;;
27383;SDS011;14851;51.166;4.760;2022-10-30T02:12:21;13.68;;;8.43;;
27383;SDS011;14851;51.166;4.760;2022-10-30T02:14:52;12.80;;;8.98;;
27383;SDS011;14851;51.166;4.760;2022-10-30T02:17:22;17.15;;;9.38;;
27383;SDS011;14851;51.166;4.760;2022-10-30T02:19:49;18.33;;;8.95;;
27383;SDS011;14851;51.166;4.760;2022-10-30T02:22:18;18.13;;;8.75;;
27383;SDS011;14851;51.166;4.760;2022-10-30T02:24:51;20.15;;;9.25;;
27383;SDS011;14851;51.166;4.760;2022-10-30T02:27:23;14.68;;;8.88;;
27383;SDS011;14851;51.166;4.760;2022-10-30T02:29:50;12.75;;;9.73;;
27383;SDS011;14851;51.166;4.760;2022-10-30T02:32:16;18.10;;;9.40;;
27383;SDS011;14851;51.166;4.760;2022-10-30T02:34:42;20.63;;;10.07;;
27383;SDS011;14851;51.166;4.760;2022-10-30T02:37:09;18.25;;;9.55;;
27383;SDS011;14851;51.166;4.760;2022-10-30T02:39:36;16.65;;;9.52;;
27383;SDS011;14851;51.166;4.760;2022-10-30T02:42:02;15.27;;;9.15;;
27383;SDS011;14851;51.166;4.760;2022-10-30T02:44:29;15.07;;;9.35;;
27383;SDS011;14851;51.166;4.760;2022-10-30T02:46:55;14.27;;;9.18;;
27383;SDS011;14851;51.166;4.760;2022-10-30T02:49:22;21.65;;;9.88;;
27383;SDS011;14851;51.166;4.760;2022-10-30T02:51:52;18.50;;;9.32;;
27383;SDS011;14851;51.166;4.760;2022-10-30T02:54:18;18.35;;;9.50;;
27383;SDS011;14851;51.166;4.760;2022-10-30T02:56:47;16.40;;;9.55;;
27383;SDS011;14851;51.166;4.760;2022-10-30T02:59:14;17.10;;;9.52;;
27383;SDS011;14851;51.166;4.760;2022-10-30T03:01:43;15.37;;;10.33;;
27383;SDS011;14851;51.166;4.760;2022-10-30T03:04:09;15.00;;;8.65;;
27383;SDS011;14851;51.166;4.760;2022-10-30T03:06:37;14.77;;;9.50;;
27383;SDS011;14851;51.166;4.760;2022-10-30T03:09:03;18.75;;;10.30;;
27383;SDS011;14851;51.166;4.760;2022-10-30T03:11:29;14.05;;;9.35;;
27383;SDS011;14851;51.166;4.760;2022-10-30T03:13:59;16.15;;;9.85;;
27383;SDS011;14851;51.166;4.760;2022-10-30T03:16:36;16.90;;;9.27;;
27383;SDS011;14851;51.166;4.760;2022-10-30T03:19:04;13.80;;;9.13;;
27383;SDS011;14851;51.166;4.760;2022-10-30T03:21:32;15.55;;;9.05;;
27383;SDS011;14851;51.166;4.760;2022-10-30T03:23:57;14.68;;;9.27;;
27383;SDS011;14851;51.166;4.760;2022-10-30T03:26:24;15.18;;;8.73;;
27383;SDS011;14851;51.166;4.760;2022-10-30T03:28:57;14.00;;;9.55;;
27383;SDS011;14851;51.166;4.760;2022-10-30T03:31:24;15.45;;;9.50;;
27383;SDS011;14851;51.166;4.760;2022-10-30T03:34:06;17.48;;;9.52;;
27383;SDS011;14851;51.166;4.760;2022-10-30T03:36:34;18.58;;;9.20;;
27383;SDS011;14851;51.166;4.760;2022-10-30T03:39:00;19.70;;;9.82;;
27383;SDS011;14851;51.166;4.760;2022-10-30T03:41:29;16.13;;;9.43;;
27383;SDS011;14851;51.166;4.760;2022-10-30T03:43:57;15.48;;;8.63;;
27383;SDS011;14851;51.166;4.760;2022-10-30T03:46:23;17.98;;;9.20;;
27383;SDS011;14851;51.166;4.760;2022-10-30T03:48:51;16.92;;;8.98;;
27383;SDS011;14851;51.166;4.760;2022-10-30T03:51:17;17.58;;;9.20;;
27383;SDS011;14851;51.166;4.760;2022-10-30T03:53:45;18.58;;;9.23;;
27383;SDS011;14851;51.166;4.760;2022-10-30T03:56:13;23.58;;;10.35;;
27383;SDS011;14851;51.166;4.760;2022-10-30T03:58:46;19.98;;;10.07;;
27383;SDS011;14851;51.166;4.760;2022-10-30T04:03:49;15.07;;;8.63;;
27383;SDS011;14851;51.166;4.760;2022-10-30T04:06:18;12.85;;;9.13;;
27383;SDS011;14851;51.166;4.760;2022-10-30T04:08:44;17.17;;;8.85;;
27383;SDS011;14851;51.166;4.760;2022-10-30T04:11:10;17.13;;;10.10;;
27383;SDS011;14851;51.166;4.760;2022-10-30T04:13:39;16.67;;;9.40;;
27383;SDS011;14851;51.166;4.760;2022-10-30T04:16:09;16.55;;;9.93;;
27383;SDS011;14851;51.166;4.760;2022-10-30T04:18:37;17.17;;;9.15;;
27383;SDS011;14851;51.166;4.760;2022-10-30T04:21:04;15.13;;;8.98;;
27383;SDS011;14851;51.166;4.760;2022-10-30T04:23:32;17.08;;;9.50;;
27383;SDS011;14851;51.166;4.760;2022-10-30T04:25:59;13.63;;;9.25;;
27383;SDS011;14851;51.166;4.760;2022-10-30T04:28:26;16.83;;;8.70;;
27383;SDS011;14851;51.166;4.760;2022-10-30T04:30:52;13.68;;;8.52;;
27383;SDS011;14851;51.166;4.760;2022-10-30T04:33:18;12.82;;;8.75;;
27383;SDS011;14851;51.166;4.760;2022-10-30T04:35:44;19.40;;;9.02;;
27383;SDS011;14851;51.166;4.760;2022-10-30T04:38:14;19.02;;;8.82;;
27383;SDS011;14851;51.166;4.760;2022-10-30T04:40:43;13.93;;;8.80;;
27383;SDS011;14851;51.166;4.760;2022-10-30T04:43:11;15.25;;;8.88;;
27383;SDS011;14851;51.166;4.760;2022-10-30T04:45:38;16.08;;;8.75;;
27383;SDS011;14851;51.166;4.760;2022-10-30T04:48:11;15.75;;;8.95;;
27383;SDS011;14851;51.166;4.760;2022-10-30T04:50:42;17.48;;;8.75;;
27383;SDS011;14851;51.166;4.760;2022-10-30T04:53:15;13.77;;;8.02;;
27383;SDS011;14851;51.166;4.760;2022-10-30T04:55:45;15.88;;;8.45;;
27383;SDS011;14851;51.166;4.760;2022-10-30T04:58:12;13.75;;;8.45;;
27383;SDS011;14851;51.166;4.760;2022-10-30T05:00:41;21.42;;;8.98;;
27383;SDS011;14851;51.166;4.760;2022-10-30T05:03:22;11.13;;;7.55;;
27383;SDS011;14851;51.166;4.760;2022-10-30T05:08:44;15.40;;;8.93;;
27383;SDS011;14851;51.166;4.760;2022-10-30T05:11:22;15.15;;;8.60;;
27383;SDS011;14851;51.166;4.760;2022-10-30T05:13:47;17.98;;;8.27;;
27383;SDS011;14851;51.166;4.760;2022-10-30T05:16:15;12.77;;;7.97;;
27383;SDS011;14851;51.166;4.760;2022-10-30T05:18:42;17.30;;;9.07;;
27383;SDS011;14851;51.166;4.760;2022-10-30T05:21:08;16.00;;;9.02;;
27383;SDS011;14851;51.166;4.760;2022-10-30T05:23:34;18.85;;;8.77;;
27383;SDS011;14851;51.166;4.760;2022-10-30T05:26:01;15.55;;;8.73;;
27383;SDS011;14851;51.166;4.760;2022-10-30T05:28:28;16.02;;;9.20;;
27383;SDS011;14851;51.166;4.760;2022-10-30T05:30:55;16.30;;;9.00;;
27383;SDS011;14851;51.166;4.760;2022-10-30T05:33:50;16.80;;;8.10;;
27383;SDS011;14851;51.166;4.760;2022-10-30T05:36:16;18.88;;;9.10;;
27383;SDS011;14851;51.166;4.760;2022-10-30T05:38:42;14.75;;;8.35;;
27383;SDS011;14851;51.166;4.760;2022-10-30T05:41:17;12.50;;;8.23;;
27383;SDS011;14851;51.166;4.760;2022-10-30T05:43:43;16.08;;;8.30;;
27383;SDS011;14851;51.166;4.760;2022-10-30T05:46:09;14.88;;;8.75;;
27383;SDS011;14851;51.166;4.760;2022-10-30T05:48:35;16.50;;;9.60;;
27383;SDS011;14851;51.166;4.760;2022-10-30T05:51:01;13.75;;;8.85;;
27383;SDS011;14851;51.166;4.760;2022-10-30T05:53:29;15.63;;;8.65;;
27383;SDS011;14851;51.166;4.760;2022-10-30T05:55:57;15.90;;;9.68;;
27383;SDS011;14851;51.166;4.760;2022-10-30T05:58:29;16.10;;;8.95;;
27383;SDS011;14851;51.166;4.760;2022-10-30T06:00:57;15.45;;;8.73;;
27383;SDS011;14851;51.166;4.760;2022-10-30T06:03:37;14.98;;;8.68;;
27383;SDS011;14851;51.166;4.760;2022-10-30T06:06:03;19.33;;;9.20;;
27383;SDS011;14851;51.166;4.760;2022-10-30T06:08:29;17.05;;;8.80;;
27383;SDS011;14851;51.166;4.760;2022-10-30T06:10:58;14.07;;;8.50;;
27383;SDS011;14851;51.166;4.760;2022-10-30T06:13:30;14.68;;;9.07;;
27383;SDS011;14851;51.166;4.760;2022-10-30T06:16:01;19.40;;;8.77;;
27383;SDS011;14851;51.166;4.760;2022-10-30T06:18:45;14.80;;;9.13;;
27383;SDS011;14851;51.166;4.760;2022-10-30T06:21:12;17.02;;;8.88;;
27383;SDS011;14851;51.166;4.760;2022-10-30T06:24:03;16.52;;;8.35;;
27383;SDS011;14851;51.166;4.760;2022-10-30T06:26:50;13.55;;;7.82;;
27383;SDS011;14851;51.166;4.760;2022-10-30T06:29:16;12.43;;;8.70;;
27383;SDS011;14851;51.166;4.760;2022-10-30T06:31:43;15.57;;;7.88;;
27383;SDS011;14851;51.166;4.760;2022-10-30T06:34:10;14.70;;;7.82;;
27383;SDS011;14851;51.166;4.760;2022-10-30T06:36:39;16.95;;;9.07;;
27383;SDS011;14851;51.166;4.760;2022-10-30T06:39:04;17.52;;;7.88;;
27383;SDS011;14851;51.166;4.760;2022-10-30T06:42:03;13.63;;;7.28;;
27383;SDS011;14851;51.166;4.760;2022-10-30T06:45:07;15.98;;;9.07;;
27383;SDS011;14851;51.166;4.760;2022-10-30T06:47:34;14.65;;;8.38;;
27383;SDS011;14851;51.166;4.760;2022-10-30T06:50:02;22.65;;;8.90;;
27383;SDS011;14851;51.166;4.760;2022-10-30T06:52:33;17.60;;;8.38;;
27383;SDS011;14851;51.166;4.760;2022-10-30T06:55:02;16.83;;;8.43;;
27383;SDS011;14851;51.166;4.760;2022-10-30T06:57:55;13.20;;;8.25;;
27383;SDS011;14851;51.166;4.760;2022-10-30T07:00:40;15.15;;;8.10;;
27383;SDS011;14851;51.166;4.760;2022-10-30T07:03:15;12.60;;;7.45;;
27383;SDS011;14851;51.166;4.760;2022-10-30T07:05:41;11.90;;;8.45;;
27383;SDS011;14851;51.166;4.760;2022-10-30T07:08:09;14.55;;;8.63;;
27383;SDS011;14851;51.166;4.760;2022-10-30T07:10:35;16.23;;;7.97;;
27383;SDS011;14851;51.166;4.760;2022-10-30T07:13:27;19.20;;;8.90;;
27383;SDS011;14851;51.166;4.760;2022-10-30T07:16:17;16.73;;;9.52;;
27383;SDS011;14851;51.166;4.760;2022-10-30T07:18:47;21.92;;;8.05;;
27383;SDS011;14851;51.166;4.760;2022-10-30T07:21:13;14.35;;;9.68;;
27383;SDS011;14851;51.166;4.760;2022-10-30T07:23:39;17.73;;;8.48;;
27383;SDS011;14851;51.166;4.760;2022-10-30T07:26:17;15.35;;;9.75;;
27383;SDS011;14851;51.166;4.760;2022-10-30T07:28:49;12.75;;;9.07;;
27383;SDS011;14851;51.166;4.760;2022-10-30T07:31:51;15.75;;;8.95;;
27383;SDS011;14851;51.166;4.760;2022-10-30T07:34:47;19.48;;;9.52;;
27383;SDS011;14851;51.166;4.760;2022-10-30T07:37:30;23.17;;;9.00;;
27383;SDS011;14851;51.166;4.760;2022-10-30T07:40:06;19.38;;;10.43;;
27383;SDS011;14851;51.166;4.760;2022-10-30T07:42:48;16.20;;;10.07;;
27383;SDS011;14851;51.166;4.760;2022-10-30T07:45:38;20.30;;;9.93;;
27383;SDS011;14851;51.166;4.760;2022-10-30T07:48:33;12.98;;;8.52;;
27383;SDS011;14851;51.166;4.760;2022-10-30T07:51:06;14.05;;;8.60;;
27383;SDS011;14851;51.166;4.760;2022-10-30T07:53:32;18.67;;;9.30;;
27383;SDS011;14851;51.166;4.760;2022-10-30T07:55:59;14.73;;;9.90;;
27383;SDS011;14851;51.166;4.760;2022-10-30T07:58:43;16.27;;;9.32;;
27383;SDS011;14851;51.166;4.760;2022-10-30T08:01:32;17.33;;;10.10;;
27383;SDS011;14851;51.166;4.760;2022-10-30T08:04:11;19.95;;;11.77;;
27383;SDS011;14851;51.166;4.760;2022-10-30T08:06:38;19.30;;;10.85;;
27383;SDS011;14851;51.166;4.760;2022-10-30T08:09:07;15.85;;;10.90;;
27383;SDS011;14851;51.166;4.760;2022-10-30T08:11:44;19.33;;;10.98;;
27383;SDS011;14851;51.166;4.760;2022-10-30T08:14:13;15.30;;;10.95;;
27383;SDS011;14851;51.166;4.760;2022-10-30T08:16:39;18.25;;;12.15;;
27383;SDS011;14851;51.166;4.760;2022-10-30T08:19:06;20.33;;;11.95;;
27383;SDS011;14851;51.166;4.760;2022-10-30T08:21:35;18.92;;;12.50;;
27383;SDS011;14851;51.166;4.760;2022-10-30T08:24:13;17.45;;;11.20;;
27383;SDS011;14851;51.166;4.760;2022-10-30T08:26:43;22.02;;;12.55;;
27383;SDS011;14851;51.166;4.760;2022-10-30T08:29:10;22.60;;;13.30;;
27383;SDS011;14851;51.166;4.760;2022-10-30T08:31:37;26.25;;;13.82;;
27383;SDS011;14851;51.166;4.760;2022-10-30T08:34:03;17.30;;;11.98;;
27383;SDS011;14851;51.166;4.760;2022-10-30T08:36:52;20.65;;;12.55;;
27383;SDS011;14851;51.166;4.760;2022-10-30T08:39:18;18.00;;;12.45;;
27383;SDS011;14851;51.166;4.760;2022-10-30T08:42:03;22.85;;;13.40;;
27383;SDS011;14851;51.166;4.760;2022-10-30T08:44:35;21.15;;;12.23;;
27383;SDS011;14851;51.166;4.760;2022-10-30T08:47:21;19.83;;;12.93;;
27383;SDS011;14851;51.166;4.760;2022-10-30T08:49:51;24.17;;;14.38;;
27383;SDS011;14851;51.166;4.760;2022-10-30T08:52:22;23.20;;;12.80;;
27383;SDS011;14851;51.166;4.760;2022-10-30T08:54:53;20.50;;;12.77;;
27383;SDS011;14851;51.166;4.760;2022-10-30T08:57:19;20.17;;;12.75;;
27383;SDS011;14851;51.166;4.760;2022-10-30T08:59:45;20.30;;;12.32;;
27383;SDS011;14851;51.166;4.760;2022-10-30T09:02:32;19.90;;;13.35;;
27383;SDS011;14851;51.166;4.760;2022-10-30T09:05:38;19.45;;;12.45;;
27383;SDS011;14851;51.166;4.760;2022-10-30T09:08:40;16.50;;;10.98;;
27383;SDS011;14851;51.166;4.760;2022-10-30T09:11:28;22.05;;;15.70;;
27383;SDS011;14851;51.166;4.760;2022-10-30T09:13:56;18.75;;;14.82;;
27383;SDS011;14851;51.166;4.760;2022-10-30T09:16:25;18.52;;;12.40;;
27383;SDS011;14851;51.166;4.760;2022-10-30T09:18:51;24.25;;;15.48;;
27383;SDS011;14851;51.166;4.760;2022-10-30T09:21:21;30.20;;;17.35;;
27383;SDS011;14851;51.166;4.760;2022-10-30T09:23:50;25.65;;;16.88;;
27383;SDS011;14851;51.166;4.760;2022-10-30T09:26:33;21.98;;;15.65;;
27383;SDS011;14851;51.166;4.760;2022-10-30T09:29:17;21.83;;;14.57;;
27383;SDS011;14851;51.166;4.760;2022-10-30T09:32:02;19.48;;;11.65;;
27383;SDS011;14851;51.166;4.760;2022-10-30T09:34:37;19.40;;;12.77;;
27383;SDS011;14851;51.166;4.760;2022-10-30T09:37:36;14.98;;;9.85;;
27383;SDS011;14851;51.166;4.760;2022-10-30T09:40:21;19.67;;;12.57;;
27383;SDS011;14851;51.166;4.760;2022-10-30T09:42:49;17.17;;;11.98;;
27383;SDS011;14851;51.166;4.760;2022-10-30T09:45:40;18.90;;;12.15;;
27383;SDS011;14851;51.166;4.760;2022-10-30T09:51:36;13.02;;;9.80;;
27383;SDS011;14851;51.166;4.760;2022-10-30T10:00:14;16.08;;;11.20;;
27383;SDS011;14851;51.166;4.760;2022-10-30T10:05:52;13.57;;;9.10;;
27383;SDS011;14851;51.166;4.760;2022-10-30T10:08:56;15.23;;;10.68;;
27383;SDS011;14851;51.166;4.760;2022-10-30T10:11:55;19.60;;;11.93;;
27383;SDS011;14851;51.166;4.760;2022-10-30T10:14:27;16.38;;;9.60;;
27383;SDS011;14851;51.166;4.760;2022-10-30T10:16:59;13.52;;;8.13;;
27383;SDS011;14851;51.166;4.760;2022-10-30T10:25:01;13.45;;;9.38;;
27383;SDS011;14851;51.166;4.760;2022-10-30T10:30:10;15.70;;;8.52;;
27383;SDS011;14851;51.166;4.760;2022-10-30T10:38:43;19.52;;;9.85;;
27383;SDS011;14851;51.166;4.760;2022-10-30T10:51:44;16.75;;;10.30;;
27383;SDS011;14851;51.166;4.760;2022-10-30T10:54:27;21.80;;;8.98;;
27383;SDS011;14851;51.166;4.760;2022-10-30T10:57:01;10.85;;;7.13;;
27383;SDS011;14851;51.166;4.760;2022-10-30T11:02:30;11.80;;;7.90;;
27383;SDS011;14851;51.166;4.760;2022-10-30T11:05:23;11.38;;;8.18;;
27383;SDS011;14851;51.166;4.760;2022-10-30T11:08:02;14.75;;;8.05;;
27383;SDS011;14851;51.166;4.760;2022-10-30T11:10:38;15.75;;;8.68;;
27383;SDS011;14851;51.166;4.760;2022-10-30T11:13:08;20.33;;;8.50;;
27383;SDS011;14851;51.166;4.760;2022-10-30T11:15:46;11.95;;;7.30;;
27383;SDS011;14851;51.166;4.760;2022-10-30T11:18:23;17.15;;;7.45;;
27383;SDS011;14851;51.166;4.760;2022-10-30T11:21:00;13.77;;;7.90;;
27383;SDS011;14851;51.166;4.760;2022-10-30T11:23:39;15.13;;;7.20;;
27383;SDS011;14851;51.166;4.760;2022-10-30T11:28:49;13.50;;;8.48;;
27383;SDS011;14851;51.166;4.760;2022-10-30T11:31:32;18.35;;;7.47;;
27383;SDS011;14851;51.166;4.760;2022-10-30T11:34:13;9.90;;;6.50;;
27383;SDS011;14851;51.166;4.760;2022-10-30T11:36:49;15.60;;;8.10;;
27383;SDS011;14851;51.166;4.760;2022-10-30T11:39:18;12.13;;;6.25;;
27383;SDS011;14851;51.166;4.760;2022-10-30T11:44:44;13.23;;;6.72;;
27383;SDS011;14851;51.166;4.760;2022-10-30T11:47:21;15.38;;;7.60;;
27383;SDS011;14851;51.166;4.760;2022-10-30T11:50:03;13.50;;;8.73;;
27383;SDS011;14851;51.166;4.760;2022-10-30T11:52:50;15.98;;;7.55;;
27383;SDS011;14851;51.166;4.760;2022-10-30T11:55:32;12.85;;;6.47;;
27383;SDS011;14851;51.166;4.760;2022-10-30T11:58:06;12.63;;;6.53;;
27383;SDS011;14851;51.166;4.760;2022-10-30T12:00:35;10.80;;;6.22;;
27383;SDS011;14851;51.166;4.760;2022-10-30T12:03:09;12.90;;;6.07;;
27383;SDS011;14851;51.166;4.760;2022-10-30T12:06:33;14.02;;;6.00;;
27383;SDS011;14851;51.166;4.760;2022-10-30T12:09:35;17.52;;;7.47;;
27383;SDS011;14851;51.166;4.760;2022-10-30T12:11:45;11.90;;;6.45;;
27383;SDS011;14851;51.166;4.760;2022-10-30T12:14:16;11.40;;;6.10;;
27383;SDS011;14851;51.166;4.760;2022-10-30T12:16:45;11.55;;;6.15;;
27383;SDS011;14851;51.166;4.760;2022-10-30T12:19:14;10.18;;;5.82;;
27383;SDS011;14851;51.166;4.760;2022-10-30T12:21:48;11.13;;;5.75;;
27383;SDS011;14851;51.166;4.760;2022-10-30T12:26:51;11.05;;;6.28;;
27383;SDS011;14851;51.166;4.760;2022-10-30T12:29:19;11.70;;;5.72;;
27383;SDS011;14851;51.166;4.760;2022-10-30T12:31:54;9.90;;;6.47;;
27383;SDS011;14851;51.166;4.760;2022-10-30T12:34:28;9.73;;;6.90;;
27383;SDS011;14851;51.166;4.760;2022-10-30T12:39:57;17.00;;;7.32;;
27383;SDS011;14851;51.166;4.760;2022-10-30T12:42:49;11.15;;;6.20;;
27383;SDS011;14851;51.166;4.760;2022-10-30T12:45:42;17.60;;;7.47;;
27383;SDS011;14851;51.166;4.760;2022-10-30T12:53:47;21.15;;;7.50;;
27383;SDS011;14851;51.166;4.760;2022-10-30T12:56:39;13.38;;;6.13;;
27383;SDS011;14851;51.166;4.760;2022-10-30T12:59:24;13.35;;;6.88;;
27383;SDS011;14851;51.166;4.760;2022-10-30T13:04:58;16.42;;;8.20;;
27383;SDS011;14851;51.166;4.760;2022-10-30T13:07:40;16.50;;;7.15;;
27383;SDS011;14851;51.166;4.760;2022-10-30T13:10:19;16.45;;;6.97;;
27383;SDS011;14851;51.166;4.760;2022-10-30T13:12:48;17.73;;;7.85;;
27383;SDS011;14851;51.166;4.760;2022-10-30T13:15:25;22.90;;;9.15;;
27383;SDS011;14851;51.166;4.760;2022-10-30T13:17:59;14.38;;;7.35;;
27383;SDS011;14851;51.166;4.760;2022-10-30T13:20:38;14.15;;;7.72;;
27383;SDS011;14851;51.166;4.760;2022-10-30T13:23:09;21.55;;;8.60;;
27383;SDS011;14851;51.166;4.760;2022-10-30T13:28:22;12.48;;;6.13;;
27383;SDS011;14851;51.166;4.760;2022-10-30T13:31:00;13.90;;;6.50;;
27383;SDS011;14851;51.166;4.760;2022-10-30T13:33:41;17.75;;;6.38;;
27383;SDS011;14851;51.166;4.760;2022-10-30T13:36:27;17.30;;;7.35;;
27383;SDS011;14851;51.166;4.760;2022-10-30T13:39:21;14.27;;;6.78;;
27383;SDS011;14851;51.166;4.760;2022-10-30T13:48:10;14.15;;;5.95;;
27383;SDS011;14851;51.166;4.760;2022-10-30T13:53:59;16.20;;;6.00;;
27383;SDS011;14851;51.166;4.760;2022-10-30T13:56:44;11.23;;;6.13;;
27383;SDS011;14851;51.166;4.760;2022-10-30T13:59:25;12.88;;;5.80;;
27383;SDS011;14851;51.166;4.760;2022-10-30T14:04:42;12.80;;;6.25;;
27383;SDS011;14851;51.166;4.760;2022-10-30T14:15:18;15.50;;;6.13;;
27383;SDS011;14851;51.166;4.760;2022-10-30T14:20:48;17.27;;;5.40;;
27383;SDS011;14851;51.166;4.760;2022-10-30T14:28:39;14.00;;;5.97;;
27383;SDS011;14851;51.166;4.760;2022-10-30T14:31:12;17.35;;;7.05;;
27383;SDS011;14851;51.166;4.760;2022-10-30T14:33:52;17.95;;;6.43;;
27383;SDS011;14851;51.166;4.760;2022-10-30T14:42:01;12.18;;;5.45;;
27383;SDS011;14851;51.166;4.760;2022-10-30T14:55:21;12.80;;;5.90;;
27383;SDS011;14851;51.166;4.760;2022-10-30T15:00:27;12.05;;;5.35;;
27383;SDS011;14851;51.166;4.760;2022-10-30T15:02:56;17.40;;;6.00;;
27383;SDS011;14851;51.166;4.760;2022-10-30T15:06:11;13.18;;;5.03;;
27383;SDS011;14851;51.166;4.760;2022-10-30T15:08:40;11.93;;;5.22;;
27383;SDS011;14851;51.166;4.760;2022-10-30T15:14:10;14.00;;;5.68;;
27383;SDS011;14851;51.166;4.760;2022-10-30T15:17:01;14.68;;;5.82;;
27383;SDS011;14851;51.166;4.760;2022-10-30T15:19:29;14.45;;;5.85;;
27383;SDS011;14851;51.166;4.760;2022-10-30T15:21:58;12.85;;;5.32;;
27383;SDS011;14851;51.166;4.760;2022-10-30T15:24:25;10.90;;;5.60;;
27383;SDS011;14851;51.166;4.760;2022-10-30T15:26:54;11.18;;;5.63;;
27383;SDS011;14851;51.166;4.760;2022-10-30T15:29:31;8.60;;;5.13;;
27383;SDS011;14851;51.166;4.760;2022-10-30T15:32:01;12.25;;;5.95;;
27383;SDS011;14851;51.166;4.760;2022-10-30T15:34:39;14.60;;;5.95;;
27383;SDS011;14851;51.166;4.760;2022-10-30T15:37:19;12.27;;;5.32;;
27383;SDS011;14851;51.166;4.760;2022-10-30T15:39:47;11.32;;;5.75;;
27383;SDS011;14851;51.166;4.760;2022-10-30T15:42:13;13.52;;;5.88;;
27383;SDS011;14851;51.166;4.760;2022-10-30T15:44:42;14.23;;;6.20;;
27383;SDS011;14851;51.166;4.760;2022-10-30T15:47:14;11.95;;;5.97;;
27383;SDS011;14851;51.166;4.760;2022-10-30T15:49:50;14.35;;;6.20;;
27383;SDS011;14851;51.166;4.760;2022-10-30T15:52:22;10.77;;;5.55;;
27383;SDS011;14851;51.166;4.760;2022-10-30T15:55:00;14.15;;;5.85;;
27383;SDS011;14851;51.166;4.760;2022-10-30T15:57:32;8.82;;;4.90;;
27383;SDS011;14851;51.166;4.760;2022-10-30T16:02:32;11.50;;;3.38;;
27383;SDS011;14851;51.166;4.760;2022-10-30T16:05:01;8.52;;;2.83;;
27383;SDS011;14851;51.166;4.760;2022-10-30T16:07:46;8.20;;;2.78;;
27383;SDS011;14851;51.166;4.760;2022-10-30T16:10:14;9.10;;;2.80;;
27383;SDS011;14851;51.166;4.760;2022-10-30T16:12:42;9.48;;;2.47;;
27383;SDS011;14851;51.166;4.760;2022-10-30T16:15:28;10.45;;;2.53;;
27383;SDS011;14851;51.166;4.760;2022-10-30T16:18:05;7.40;;;2.28;;
27383;SDS011;14851;51.166;4.760;2022-10-30T16:20:48;6.10;;;2.30;;
27383;SDS011;14851;51.166;4.760;2022-10-30T16:23:18;7.13;;;2.42;;
27383;SDS011;14851;51.166;4.760;2022-10-30T16:25:44;7.85;;;2.38;;
27383;SDS011;14851;51.166;4.760;2022-10-30T16:31:01;13.20;;;2.65;;
27383;SDS011;14851;51.166;4.760;2022-10-30T16:33:30;11.60;;;2.25;;
27383;SDS011;14851;51.166;4.760;2022-10-30T16:35:59;8.43;;;2.45;;
27383;SDS011;14851;51.166;4.760;2022-10-30T16:38:30;7.85;;;2.47;;
27383;SDS011;14851;51.166;4.760;2022-10-30T16:41:03;5.90;;;2.45;;
27383;SDS011;14851;51.166;4.760;2022-10-30T16:43:31;12.38;;;2.85;;
27383;SDS011;14851;51.166;4.760;2022-10-30T16:48:59;5.97;;;1.88;;
27383;SDS011;14851;51.166;4.760;2022-10-30T16:51:27;11.05;;;2.50;;
27383;SDS011;14851;51.166;4.760;2022-10-30T16:53:56;10.10;;;2.30;;
27383;SDS011;14851;51.166;4.760;2022-10-30T16:56:23;6.95;;;2.25;;
27383;SDS011;14851;51.166;4.760;2022-10-30T16:58:53;6.93;;;2.00;;
27383;SDS011;14851;51.166;4.760;2022-10-30T17:01:32;11.23;;;3.28;;
27383;SDS011;14851;51.166;4.760;2022-10-30T17:04:02;10.40;;;2.63;;
27383;SDS011;14851;51.166;4.760;2022-10-30T17:06:39;6.90;;;2.08;;
27383;SDS011;14851;51.166;4.760;2022-10-30T17:09:25;9.90;;;2.53;;
27383;SDS011;14851;51.166;4.760;2022-10-30T17:20:05;6.07;;;2.92;;
27383;SDS011;14851;51.166;4.760;2022-10-30T17:22:34;11.75;;;4.43;;
27383;SDS011;14851;51.166;4.760;2022-10-30T17:25:15;19.90;;;8.35;;
27383;SDS011;14851;51.166;4.760;2022-10-30T17:27:49;19.20;;;5.03;;
27383;SDS011;14851;51.166;4.760;2022-10-30T17:30:42;13.23;;;4.15;;
27383;SDS011;14851;51.166;4.760;2022-10-30T17:35:57;9.23;;;3.00;;
27383;SDS011;14851;51.166;4.760;2022-10-30T17:38:26;13.23;;;4.47;;
27383;SDS011;14851;51.166;4.760;2022-10-30T17:41:10;13.90;;;6.50;;
27383;SDS011;14851;51.166;4.760;2022-10-30T17:43:47;16.85;;;6.88;;
27383;SDS011;14851;51.166;4.760;2022-10-30T17:46:18;11.93;;;4.47;;
27383;SDS011;14851;51.166;4.760;2022-10-30T17:49:27;11.02;;;4.25;;
27383;SDS011;14851;51.166;4.760;2022-10-30T17:52:14;10.07;;;5.13;;
27383;SDS011;14851;51.166;4.760;2022-10-30T17:54:46;11.95;;;6.68;;
27383;SDS011;14851;51.166;4.760;2022-10-30T17:57:20;17.17;;;5.97;;